sensor_id;sensor_type;location;lat;lon;timestamp;temperature;humidity
30648;DHT22;17683;53.360;9.736;2023-07-20T00:00:07;13.30;99.90
30648;DHT22;17683;53.360;9.736;2023-07-20T00:02:32;13.30;99.90
30648;DHT22;17683;53.360;9.736;2023-07-20T00:04:58;13.30;99.90
30648;DHT22;17683;53.360;9.736;2023-07-20T00:07:24;13.30;99.90
30648;DHT22;17683;53.360;9.736;2023-07-20T00:09:50;13.30;99.90
30648;DHT22;17683;53.360;9.736;2023-07-20T00:12:16;13.20;99.90
30648;DHT22;17683;53.360;9.736;2023-07-20T00:14:41;13.20;99.90
30648;DHT22;17683;53.360;9.736;2023-07-20T00:17:07;13.30;99.90
30648;DHT22;17683;53.360;9.736;2023-07-20T00:19:33;13.30;99.90
30648;DHT22;17683;53.360;9.736;2023-07-20T00:21:58;13.40;99.90
30648;DHT22;17683;53.360;9.736;2023-07-20T00:24:24;13.40;99.90
30648;DHT22;17683;53.360;9.736;2023-07-20T00:26:50;13.40;99.90
30648;DHT22;17683;53.360;9.736;2023-07-20T00:29:16;13.40;99.90
30648;DHT22;17683;53.360;9.736;2023-07-20T00:31:41;13.50;99.90
30648;DHT22;17683;53.360;9.736;2023-07-20T00:34:08;13.50;99.90
30648;DHT22;17683;53.360;9.736;2023-07-20T00:36:34;13.60;99.90
30648;DHT22;17683;53.360;9.736;2023-07-20T00:39:00;13.60;99.90
30648;DHT22;17683;53.360;9.736;2023-07-20T00:41:26;13.60;99.90
30648;DHT22;17683;53.360;9.736;2023-07-20T00:43:55;13.60;99.90
30648;DHT22;17683;53.360;9.736;2023-07-20T00:46:23;13.60;99.90
30648;DHT22;17683;53.360;9.736;2023-07-20T00:48:49;13.60;99.90
30648;DHT22;17683;53.360;9.736;2023-07-20T00:51:15;13.60;99.90
30648;DHT22;17683;53.360;9.736;2023-07-20T00:53:41;13.60;99.90
30648;DHT22;17683;53.360;9.736;2023-07-20T00:56:07;13.60;99.90
30648;DHT22;17683;53.360;9.736;2023-07-20T00:58:34;13.60;99.90
30648;DHT22;17683;53.360;9.736;2023-07-20T01:01:00;13.70;99.90
30648;DHT22;17683;53.360;9.736;2023-07-20T01:03:26;13.70;99.90
30648;DHT22;17683;53.360;9.736;2023-07-20T01:06:09;13.70;99.90
30648;DHT22;17683;53.360;9.736;2023-07-20T01:11:30;13.80;99.90
30648;DHT22;17683;53.360;9.736;2023-07-20T01:13:58;13.90;99.90
30648;DHT22;17683;53.360;9.736;2023-07-20T01:16:23;13.90;99.90
30648;DHT22;17683;53.360;9.736;2023-07-20T01:18:50;13.90;99.90
30648;DHT22;17683;53.360;9.736;2023-07-20T01:21:22;13.90;99.90
30648;DHT22;17683;53.360;9.736;2023-07-20T01:23:56;13.90;99.90
30648;DHT22;17683;53.360;9.736;2023-07-20T01:26:47;14.00;99.90
30648;DHT22;17683;53.360;9.736;2023-07-20T01:32:21;14.20;99.90
30648;DHT22;17683;53.360;9.736;2023-07-20T01:34:51;14.20;99.90
30648;DHT22;17683;53.360;9.736;2023-07-20T01:37:18;14.20;99.90
30648;DHT22;17683;53.360;9.736;2023-07-20T01:39:46;14.20;99.90
30648;DHT22;17683;53.360;9.736;2023-07-20T01:42:12;14.20;99.90
30648;DHT22;17683;53.360;9.736;2023-07-20T01:44:39;14.20;99.90
30648;DHT22;17683;53.360;9.736;2023-07-20T01:47:05;14.30;99.90
30648;DHT22;17683;53.360;9.736;2023-07-20T01:49:30;14.30;99.90
30648;DHT22;17683;53.360;9.736;2023-07-20T01:51:56;14.20;99.90
30648;DHT22;17683;53.360;9.736;2023-07-20T01:54:22;14.30;99.90
30648;DHT22;17683;53.360;9.736;2023-07-20T01:56:47;14.30;99.90
30648;DHT22;17683;53.360;9.736;2023-07-20T01:59:13;14.20;99.90
30648;DHT22;17683;53.360;9.736;2023-07-20T02:01:39;14.20;99.90
30648;DHT22;17683;53.360;9.736;2023-07-20T02:04:04;14.20;99.90
30648;DHT22;17683;53.360;9.736;2023-07-20T02:06:31;14.20;99.90
30648;DHT22;17683;53.360;9.736;2023-07-20T02:08:56;14.30;99.90
30648;DHT22;17683;53.360;9.736;2023-07-20T02:11:22;14.30;99.90
30648;DHT22;17683;53.360;9.736;2023-07-20T02:13:48;14.30;99.90
30648;DHT22;17683;53.360;9.736;2023-07-20T02:16:13;14.30;99.90
30648;DHT22;17683;53.360;9.736;2023-07-20T02:18:39;14.30;99.90
30648;DHT22;17683;53.360;9.736;2023-07-20T02:21:05;14.30;99.90
30648;DHT22;17683;53.360;9.736;2023-07-20T02:23:30;14.30;99.90
30648;DHT22;17683;53.360;9.736;2023-07-20T02:25:56;14.30;99.90
30648;DHT22;17683;53.360;9.736;2023-07-20T02:28:22;14.30;99.90
30648;DHT22;17683;53.360;9.736;2023-07-20T02:30:49;14.30;99.90
30648;DHT22;17683;53.360;9.736;2023-07-20T02:33:15;14.30;99.90
30648;DHT22;17683;53.360;9.736;2023-07-20T02:35:41;14.30;99.90
30648;DHT22;17683;53.360;9.736;2023-07-20T02:38:06;14.30;99.90
30648;DHT22;17683;53.360;9.736;2023-07-20T02:40:32;14.30;99.90
30648;DHT22;17683;53.360;9.736;2023-07-20T02:42:58;14.30;99.90
30648;DHT22;17683;53.360;9.736;2023-07-20T02:45:23;14.30;99.90
30648;DHT22;17683;53.360;9.736;2023-07-20T02:47:49;14.30;99.90
30648;DHT22;17683;53.360;9.736;2023-07-20T02:50:15;14.30;99.90
30648;DHT22;17683;53.360;9.736;2023-07-20T02:52:40;14.30;99.90
30648;DHT22;17683;53.360;9.736;2023-07-20T02:55:06;14.30;99.90
30648;DHT22;17683;53.360;9.736;2023-07-20T02:57:32;14.30;99.90
30648;DHT22;17683;53.360;9.736;2023-07-20T02:59:58;14.30;99.90
30648;DHT22;17683;53.360;9.736;2023-07-20T03:02:23;14.20;99.90
30648;DHT22;17683;53.360;9.736;2023-07-20T03:04:49;14.30;99.90
30648;DHT22;17683;53.360;9.736;2023-07-20T03:07:14;14.30;99.90
30648;DHT22;17683;53.360;9.736;2023-07-20T03:09:40;14.30;99.90
30648;DHT22;17683;53.360;9.736;2023-07-20T03:12:06;14.30;99.90
30648;DHT22;17683;53.360;9.736;2023-07-20T03:14:32;14.30;99.90
30648;DHT22;17683;53.360;9.736;2023-07-20T03:16:58;14.30;99.90
30648;DHT22;17683;53.360;9.736;2023-07-20T03:19:24;14.30;99.90
30648;DHT22;17683;53.360;9.736;2023-07-20T03:21:49;14.30;99.90
30648;DHT22;17683;53.360;9.736;2023-07-20T03:24:16;14.30;99.90
30648;DHT22;17683;53.360;9.736;2023-07-20T03:26:41;14.40;99.90
30648;DHT22;17683;53.360;9.736;2023-07-20T03:29:07;14.30;99.90
30648;DHT22;17683;53.360;9.736;2023-07-20T03:31:33;14.40;99.90
30648;DHT22;17683;53.360;9.736;2023-07-20T03:33:59;14.40;99.90
30648;DHT22;17683;53.360;9.736;2023-07-20T03:36:25;14.40;99.90
30648;DHT22;17683;53.360;9.736;2023-07-20T03:38:50;14.40;99.90
30648;DHT22;17683;53.360;9.736;2023-07-20T03:41:16;14.40;99.90
30648;DHT22;17683;53.360;9.736;2023-07-20T03:43:42;14.40;99.90
30648;DHT22;17683;53.360;9.736;2023-07-20T03:46:08;14.40;99.90
30648;DHT22;17683;53.360;9.736;2023-07-20T03:48:33;14.40;99.90
30648;DHT22;17683;53.360;9.736;2023-07-20T03:50:59;14.50;99.90
30648;DHT22;17683;53.360;9.736;2023-07-20T03:53:28;14.50;99.90
30648;DHT22;17683;53.360;9.736;2023-07-20T03:55:54;14.50;99.90
30648;DHT22;17683;53.360;9.736;2023-07-20T03:58:20;14.50;99.90
30648;DHT22;17683;53.360;9.736;2023-07-20T04:00:50;14.50;99.90
30648;DHT22;17683;53.360;9.736;2023-07-20T04:03:19;14.50;99.90
30648;DHT22;17683;53.360;9.736;2023-07-20T04:05:45;14.50;99.90
30648;DHT22;17683;53.360;9.736;2023-07-20T04:08:11;14.50;99.90
30648;DHT22;17683;53.360;9.736;2023-07-20T04:10:38;14.50;99.90
30648;DHT22;17683;53.360;9.736;2023-07-20T04:13:04;14.50;99.90
30648;DHT22;17683;53.360;9.736;2023-07-20T04:15:30;14.50;99.90
30648;DHT22;17683;53.360;9.736;2023-07-20T04:17:56;14.50;99.90
30648;DHT22;17683;53.360;9.736;2023-07-20T04:20:23;14.60;99.90
30648;DHT22;17683;53.360;9.736;2023-07-20T04:22:49;14.60;99.90
30648;DHT22;17683;53.360;9.736;2023-07-20T04:25:15;14.70;99.90
30648;DHT22;17683;53.360;9.736;2023-07-20T04:27:41;14.70;99.90
30648;DHT22;17683;53.360;9.736;2023-07-20T04:30:08;14.70;99.90
30648;DHT22;17683;53.360;9.736;2023-07-20T04:32:34;14.80;99.90
30648;DHT22;17683;53.360;9.736;2023-07-20T04:35:00;14.80;99.90
30648;DHT22;17683;53.360;9.736;2023-07-20T04:37:26;14.80;99.90
30648;DHT22;17683;53.360;9.736;2023-07-20T04:39:51;14.80;99.90
30648;DHT22;17683;53.360;9.736;2023-07-20T04:42:17;14.80;99.90
30648;DHT22;17683;53.360;9.736;2023-07-20T04:44:43;14.80;99.90
30648;DHT22;17683;53.360;9.736;2023-07-20T04:47:09;14.90;99.90
30648;DHT22;17683;53.360;9.736;2023-07-20T04:49:34;14.90;99.90
30648;DHT22;17683;53.360;9.736;2023-07-20T04:52:00;15.00;99.90
30648;DHT22;17683;53.360;9.736;2023-07-20T04:54:26;15.00;99.90
30648;DHT22;17683;53.360;9.736;2023-07-20T04:56:53;15.00;99.90
30648;DHT22;17683;53.360;9.736;2023-07-20T04:59:19;15.00;99.90
30648;DHT22;17683;53.360;9.736;2023-07-20T05:01:44;15.00;99.90
30648;DHT22;17683;53.360;9.736;2023-07-20T05:04:10;15.00;99.90
30648;DHT22;17683;53.360;9.736;2023-07-20T05:06:36;15.00;99.90
30648;DHT22;17683;53.360;9.736;2023-07-20T05:09:01;15.10;99.90
30648;DHT22;17683;53.360;9.736;2023-07-20T05:11:27;15.10;99.90
30648;DHT22;17683;53.360;9.736;2023-07-20T05:13:53;15.20;99.90
30648;DHT22;17683;53.360;9.736;2023-07-20T05:16:18;15.20;99.90
30648;DHT22;17683;53.360;9.736;2023-07-20T05:18:44;15.30;99.90
30648;DHT22;17683;53.360;9.736;2023-07-20T05:21:10;15.30;99.90
30648;DHT22;17683;53.360;9.736;2023-07-20T05:23:36;15.30;99.90
30648;DHT22;17683;53.360;9.736;2023-07-20T05:26:01;15.30;99.90
30648;DHT22;17683;53.360;9.736;2023-07-20T05:28:27;15.30;99.90
30648;DHT22;17683;53.360;9.736;2023-07-20T05:30:53;15.30;99.90
30648;DHT22;17683;53.360;9.736;2023-07-20T05:33:20;15.30;99.90
30648;DHT22;17683;53.360;9.736;2023-07-20T05:35:46;15.50;99.90
30648;DHT22;17683;53.360;9.736;2023-07-20T05:38:12;15.50;99.90
30648;DHT22;17683;53.360;9.736;2023-07-20T05:40:39;15.70;99.90
30648;DHT22;17683;53.360;9.736;2023-07-20T05:43:05;15.80;99.90
30648;DHT22;17683;53.360;9.736;2023-07-20T05:45:31;16.00;99.90
30648;DHT22;17683;53.360;9.736;2023-07-20T05:47:57;16.10;99.90
30648;DHT22;17683;53.360;9.736;2023-07-20T05:50:22;16.30;99.90
30648;DHT22;17683;53.360;9.736;2023-07-20T05:52:48;16.50;99.90
30648;DHT22;17683;53.360;9.736;2023-07-20T05:55:14;16.70;99.90
30648;DHT22;17683;53.360;9.736;2023-07-20T05:57:40;16.70;99.90
30648;DHT22;17683;53.360;9.736;2023-07-20T06:00:08;16.80;99.90
30648;DHT22;17683;53.360;9.736;2023-07-20T06:02:34;16.90;99.90
30648;DHT22;17683;53.360;9.736;2023-07-20T06:05:00;17.00;99.90
30648;DHT22;17683;53.360;9.736;2023-07-20T06:07:25;17.20;99.90
30648;DHT22;17683;53.360;9.736;2023-07-20T06:09:51;17.30;99.90
30648;DHT22;17683;53.360;9.736;2023-07-20T06:12:17;17.30;99.90
30648;DHT22;17683;53.360;9.736;2023-07-20T06:14:43;17.40;99.90
30648;DHT22;17683;53.360;9.736;2023-07-20T06:17:09;17.60;99.90
30648;DHT22;17683;53.360;9.736;2023-07-20T06:19:35;17.70;99.90
30648;DHT22;17683;53.360;9.736;2023-07-20T06:22:01;17.80;99.90
30648;DHT22;17683;53.360;9.736;2023-07-20T06:24:26;17.90;99.90
30648;DHT22;17683;53.360;9.736;2023-07-20T06:26:52;18.00;99.90
30648;DHT22;17683;53.360;9.736;2023-07-20T06:29:18;18.00;99.90
30648;DHT22;17683;53.360;9.736;2023-07-20T06:31:44;18.10;99.90
30648;DHT22;17683;53.360;9.736;2023-07-20T06:34:10;18.20;99.90
30648;DHT22;17683;53.360;9.736;2023-07-20T06:36:36;18.30;99.90
30648;DHT22;17683;53.360;9.736;2023-07-20T06:39:02;18.40;99.90
30648;DHT22;17683;53.360;9.736;2023-07-20T06:41:28;18.50;99.90
30648;DHT22;17683;53.360;9.736;2023-07-20T06:43:53;18.60;99.90
30648;DHT22;17683;53.360;9.736;2023-07-20T06:46:26;18.50;99.90
30648;DHT22;17683;53.360;9.736;2023-07-20T06:48:53;18.60;99.90
30648;DHT22;17683;53.360;9.736;2023-07-20T06:51:19;18.70;99.90
30648;DHT22;17683;53.360;9.736;2023-07-20T06:53:45;18.70;99.90
30648;DHT22;17683;53.360;9.736;2023-07-20T06:56:11;18.90;99.90
30648;DHT22;17683;53.360;9.736;2023-07-20T06:58:37;19.00;99.90
30648;DHT22;17683;53.360;9.736;2023-07-20T07:01:07;19.00;99.90
30648;DHT22;17683;53.360;9.736;2023-07-20T07:03:32;19.00;99.90
30648;DHT22;17683;53.360;9.736;2023-07-20T07:05:59;18.80;99.90
30648;DHT22;17683;53.360;9.736;2023-07-20T07:08:25;18.80;99.90
30648;DHT22;17683;53.360;9.736;2023-07-20T07:10:50;18.70;99.90
30648;DHT22;17683;53.360;9.736;2023-07-20T07:13:16;18.70;99.90
30648;DHT22;17683;53.360;9.736;2023-07-20T07:15:42;18.80;99.90
30648;DHT22;17683;53.360;9.736;2023-07-20T07:18:08;19.00;99.90
30648;DHT22;17683;53.360;9.736;2023-07-20T07:20:33;19.20;99.90
30648;DHT22;17683;53.360;9.736;2023-07-20T07:22:59;19.30;99.90
30648;DHT22;17683;53.360;9.736;2023-07-20T07:25:26;19.30;99.90
30648;DHT22;17683;53.360;9.736;2023-07-20T07:27:53;19.30;99.90
30648;DHT22;17683;53.360;9.736;2023-07-20T07:30:19;19.00;99.90
30648;DHT22;17683;53.360;9.736;2023-07-20T07:32:44;18.90;99.90
30648;DHT22;17683;53.360;9.736;2023-07-20T07:35:10;18.90;99.90
30648;DHT22;17683;53.360;9.736;2023-07-20T07:37:37;18.90;99.90
30648;DHT22;17683;53.360;9.736;2023-07-20T07:40:03;19.00;99.90
30648;DHT22;17683;53.360;9.736;2023-07-20T07:42:29;19.10;99.90
30648;DHT22;17683;53.360;9.736;2023-07-20T07:44:55;19.00;99.90
30648;DHT22;17683;53.360;9.736;2023-07-20T07:47:21;18.90;99.90
30648;DHT22;17683;53.360;9.736;2023-07-20T07:49:46;19.10;99.90
30648;DHT22;17683;53.360;9.736;2023-07-20T07:52:12;19.20;99.90
30648;DHT22;17683;53.360;9.736;2023-07-20T07:54:39;19.50;99.90
30648;DHT22;17683;53.360;9.736;2023-07-20T07:57:05;19.70;99.90
30648;DHT22;17683;53.360;9.736;2023-07-20T07:59:31;19.80;99.90
30648;DHT22;17683;53.360;9.736;2023-07-20T08:02:03;20.10;99.90
30648;DHT22;17683;53.360;9.736;2023-07-20T08:04:30;20.20;99.90
30648;DHT22;17683;53.360;9.736;2023-07-20T08:06:55;20.20;99.90
30648;DHT22;17683;53.360;9.736;2023-07-20T08:09:21;20.20;99.90
30648;DHT22;17683;53.360;9.736;2023-07-20T08:11:47;20.30;99.90
30648;DHT22;17683;53.360;9.736;2023-07-20T08:14:13;20.30;99.90
30648;DHT22;17683;53.360;9.736;2023-07-20T08:16:39;20.40;99.90
30648;DHT22;17683;53.360;9.736;2023-07-20T08:19:05;20.30;99.90
30648;DHT22;17683;53.360;9.736;2023-07-20T08:21:31;20.10;99.90
30648;DHT22;17683;53.360;9.736;2023-07-20T08:23:56;20.00;99.90
30648;DHT22;17683;53.360;9.736;2023-07-20T08:26:23;19.90;99.90
30648;DHT22;17683;53.360;9.736;2023-07-20T08:28:49;19.90;99.90
30648;DHT22;17683;53.360;9.736;2023-07-20T08:31:15;20.10;99.90
30648;DHT22;17683;53.360;9.736;2023-07-20T08:33:40;20.20;99.90
30648;DHT22;17683;53.360;9.736;2023-07-20T08:36:06;20.20;99.90
30648;DHT22;17683;53.360;9.736;2023-07-20T08:38:33;20.00;99.90
30648;DHT22;17683;53.360;9.736;2023-07-20T08:40:59;20.00;99.90
30648;DHT22;17683;53.360;9.736;2023-07-20T08:43:27;20.10;99.90
30648;DHT22;17683;53.360;9.736;2023-07-20T08:45:57;20.20;99.90
30648;DHT22;17683;53.360;9.736;2023-07-20T08:48:22;20.10;99.90
30648;DHT22;17683;53.360;9.736;2023-07-20T08:50:52;20.00;99.90
30648;DHT22;17683;53.360;9.736;2023-07-20T08:53:22;19.60;99.90
30648;DHT22;17683;53.360;9.736;2023-07-20T08:55:50;19.50;99.90
30648;DHT22;17683;53.360;9.736;2023-07-20T08:58:16;19.20;99.90
30648;DHT22;17683;53.360;9.736;2023-07-20T09:00:43;18.80;99.90
30648;DHT22;17683;53.360;9.736;2023-07-20T09:03:10;18.50;99.90
30648;DHT22;17683;53.360;9.736;2023-07-20T09:05:36;18.30;99.90
30648;DHT22;17683;53.360;9.736;2023-07-20T09:08:02;18.20;99.90
30648;DHT22;17683;53.360;9.736;2023-07-20T09:10:31;18.20;99.90
30648;DHT22;17683;53.360;9.736;2023-07-20T09:12:57;18.30;99.90
30648;DHT22;17683;53.360;9.736;2023-07-20T09:15:23;18.50;99.90
30648;DHT22;17683;53.360;9.736;2023-07-20T09:17:50;18.70;99.90
30648;DHT22;17683;53.360;9.736;2023-07-20T09:20:17;18.90;99.90
30648;DHT22;17683;53.360;9.736;2023-07-20T09:22:43;19.30;99.90
30648;DHT22;17683;53.360;9.736;2023-07-20T09:25:17;19.60;99.90
30648;DHT22;17683;53.360;9.736;2023-07-20T09:27:47;19.70;99.90
30648;DHT22;17683;53.360;9.736;2023-07-20T09:30:16;19.90;99.90
30648;DHT22;17683;53.360;9.736;2023-07-20T09:32:47;20.10;99.90
30648;DHT22;17683;53.360;9.736;2023-07-20T09:35:20;20.20;99.90
30648;DHT22;17683;53.360;9.736;2023-07-20T09:37:59;20.40;99.90
30648;DHT22;17683;53.360;9.736;2023-07-20T09:40:26;20.60;99.90
30648;DHT22;17683;53.360;9.736;2023-07-20T09:42:53;20.70;99.90
30648;DHT22;17683;53.360;9.736;2023-07-20T09:45:35;20.80;99.90
30648;DHT22;17683;53.360;9.736;2023-07-20T09:48:08;20.80;99.90
30648;DHT22;17683;53.360;9.736;2023-07-20T09:50:39;21.00;99.90
30648;DHT22;17683;53.360;9.736;2023-07-20T09:53:07;21.00;99.90
30648;DHT22;17683;53.360;9.736;2023-07-20T09:55:33;21.30;99.90
30648;DHT22;17683;53.360;9.736;2023-07-20T09:58:00;21.30;99.90
30648;DHT22;17683;53.360;9.736;2023-07-20T10:00:26;21.40;99.40
30648;DHT22;17683;53.360;9.736;2023-07-20T10:02:52;21.30;99.40
30648;DHT22;17683;53.360;9.736;2023-07-20T10:05:19;21.40;99.90
30648;DHT22;17683;53.360;9.736;2023-07-20T10:07:50;21.40;99.90
30648;DHT22;17683;53.360;9.736;2023-07-20T10:10:17;21.30;99.90
30648;DHT22;17683;53.360;9.736;2023-07-20T10:12:46;21.20;99.30
30648;DHT22;17683;53.360;9.736;2023-07-20T10:15:30;21.00;99.90
30648;DHT22;17683;53.360;9.736;2023-07-20T10:18:07;21.10;99.90
30648;DHT22;17683;53.360;9.736;2023-07-20T10:20:36;21.40;99.90
30648;DHT22;17683;53.360;9.736;2023-07-20T10:23:05;21.60;99.60
30648;DHT22;17683;53.360;9.736;2023-07-20T10:25:31;21.40;99.90
30648;DHT22;17683;53.360;9.736;2023-07-20T10:27:59;20.80;99.90
30648;DHT22;17683;53.360;9.736;2023-07-20T10:30:26;20.50;99.90
30648;DHT22;17683;53.360;9.736;2023-07-20T10:32:52;19.90;99.90
30648;DHT22;17683;53.360;9.736;2023-07-20T10:35:18;19.70;99.90
30648;DHT22;17683;53.360;9.736;2023-07-20T10:37:48;19.40;99.90
30648;DHT22;17683;53.360;9.736;2023-07-20T10:43:06;19.10;99.90
30648;DHT22;17683;53.360;9.736;2023-07-20T10:45:52;19.10;99.90
30648;DHT22;17683;53.360;9.736;2023-07-20T10:48:23;19.30;99.90
30648;DHT22;17683;53.360;9.736;2023-07-20T10:51:19;19.30;99.90
30648;DHT22;17683;53.360;9.736;2023-07-20T10:53:46;19.40;99.90
30648;DHT22;17683;53.360;9.736;2023-07-20T10:56:15;19.60;99.90
30648;DHT22;17683;53.360;9.736;2023-07-20T10:58:44;19.90;99.90
30648;DHT22;17683;53.360;9.736;2023-07-20T11:01:14;20.20;99.90
30648;DHT22;17683;53.360;9.736;2023-07-20T11:03:41;20.20;99.90
30648;DHT22;17683;53.360;9.736;2023-07-20T11:09:12;20.50;99.90
30648;DHT22;17683;53.360;9.736;2023-07-20T11:11:41;20.80;99.90
30648;DHT22;17683;53.360;9.736;2023-07-20T11:14:09;21.10;99.90
30648;DHT22;17683;53.360;9.736;2023-07-20T11:16:44;20.90;99.90
30648;DHT22;17683;53.360;9.736;2023-07-20T11:19:23;20.60;99.90
30648;DHT22;17683;53.360;9.736;2023-07-20T11:21:58;20.20;99.90
30648;DHT22;17683;53.360;9.736;2023-07-20T11:24:24;19.70;99.90
30648;DHT22;17683;53.360;9.736;2023-07-20T11:26:52;19.50;99.90
30648;DHT22;17683;53.360;9.736;2023-07-20T11:29:19;19.30;99.90
30648;DHT22;17683;53.360;9.736;2023-07-20T11:31:47;19.20;99.90
30648;DHT22;17683;53.360;9.736;2023-07-20T11:34:17;19.40;99.90
30648;DHT22;17683;53.360;9.736;2023-07-20T11:36:45;19.70;99.90
30648;DHT22;17683;53.360;9.736;2023-07-20T11:39:12;19.90;99.90
30648;DHT22;17683;53.360;9.736;2023-07-20T11:41:38;20.20;99.90
30648;DHT22;17683;53.360;9.736;2023-07-20T11:44:05;20.30;99.90
30648;DHT22;17683;53.360;9.736;2023-07-20T11:46:39;20.40;99.90
30648;DHT22;17683;53.360;9.736;2023-07-20T11:49:05;20.20;99.90
30648;DHT22;17683;53.360;9.736;2023-07-20T11:51:31;20.10;99.90
30648;DHT22;17683;53.360;9.736;2023-07-20T11:53:58;20.00;99.90
30648;DHT22;17683;53.360;9.736;2023-07-20T11:56:25;19.70;99.90
30648;DHT22;17683;53.360;9.736;2023-07-20T11:58:55;19.60;99.90
30648;DHT22;17683;53.360;9.736;2023-07-20T12:01:22;19.60;99.90
30648;DHT22;17683;53.360;9.736;2023-07-20T12:03:48;19.70;99.90
30648;DHT22;17683;53.360;9.736;2023-07-20T12:06:15;20.00;99.90
30648;DHT22;17683;53.360;9.736;2023-07-20T12:08:44;20.20;99.90
30648;DHT22;17683;53.360;9.736;2023-07-20T12:11:10;20.40;99.90
30648;DHT22;17683;53.360;9.736;2023-07-20T12:13:42;20.40;99.90
30648;DHT22;17683;53.360;9.736;2023-07-20T12:16:16;20.50;99.90
30648;DHT22;17683;53.360;9.736;2023-07-20T12:18:45;20.50;99.90
30648;DHT22;17683;53.360;9.736;2023-07-20T12:21:11;20.40;99.90
30648;DHT22;17683;53.360;9.736;2023-07-20T12:23:40;20.40;99.90
30648;DHT22;17683;53.360;9.736;2023-07-20T12:26:10;20.40;99.90
30648;DHT22;17683;53.360;9.736;2023-07-20T12:28:41;20.30;99.90
30648;DHT22;17683;53.360;9.736;2023-07-20T12:31:08;20.30;99.90
30648;DHT22;17683;53.360;9.736;2023-07-20T12:33:35;20.20;99.90
30648;DHT22;17683;53.360;9.736;2023-07-20T12:36:01;20.10;99.90
30648;DHT22;17683;53.360;9.736;2023-07-20T12:38:27;20.00;99.90
30648;DHT22;17683;53.360;9.736;2023-07-20T12:40:54;20.20;99.90
30648;DHT22;17683;53.360;9.736;2023-07-20T12:43:24;20.20;99.90
30648;DHT22;17683;53.360;9.736;2023-07-20T12:45:49;20.20;99.90
30648;DHT22;17683;53.360;9.736;2023-07-20T12:48:15;20.10;99.90
30648;DHT22;17683;53.360;9.736;2023-07-20T12:50:41;20.00;99.90
30648;DHT22;17683;53.360;9.736;2023-07-20T12:53:07;20.00;99.90
30648;DHT22;17683;53.360;9.736;2023-07-20T12:55:32;20.10;99.90
30648;DHT22;17683;53.360;9.736;2023-07-20T12:57:58;20.20;99.90
30648;DHT22;17683;53.360;9.736;2023-07-20T13:00:24;20.30;99.90
30648;DHT22;17683;53.360;9.736;2023-07-20T13:02:50;20.40;99.90
30648;DHT22;17683;53.360;9.736;2023-07-20T13:05:16;20.50;99.90
30648;DHT22;17683;53.360;9.736;2023-07-20T13:07:42;20.70;99.90
30648;DHT22;17683;53.360;9.736;2023-07-20T13:10:08;20.70;99.90
30648;DHT22;17683;53.360;9.736;2023-07-20T13:12:36;20.70;99.90
30648;DHT22;17683;53.360;9.736;2023-07-20T13:15:06;20.70;99.90
30648;DHT22;17683;53.360;9.736;2023-07-20T13:17:36;20.60;99.90
30648;DHT22;17683;53.360;9.736;2023-07-20T13:20:06;20.60;99.90
30648;DHT22;17683;53.360;9.736;2023-07-20T13:22:33;20.80;99.90
30648;DHT22;17683;53.360;9.736;2023-07-20T13:24:59;20.90;99.90
30648;DHT22;17683;53.360;9.736;2023-07-20T13:27:25;20.70;99.90
30648;DHT22;17683;53.360;9.736;2023-07-20T13:29:54;20.60;99.90
30648;DHT22;17683;53.360;9.736;2023-07-20T13:32:19;20.80;99.90
30648;DHT22;17683;53.360;9.736;2023-07-20T13:34:45;20.90;99.90
30648;DHT22;17683;53.360;9.736;2023-07-20T13:37:11;21.00;99.90
30648;DHT22;17683;53.360;9.736;2023-07-20T13:39:38;21.10;98.90
30648;DHT22;17683;53.360;9.736;2023-07-20T13:42:05;21.20;99.30
30648;DHT22;17683;53.360;9.736;2023-07-20T13:44:33;21.20;99.30
30648;DHT22;17683;53.360;9.736;2023-07-20T13:47:00;21.10;99.40
30648;DHT22;17683;53.360;9.736;2023-07-20T13:49:26;21.10;99.20
30648;DHT22;17683;53.360;9.736;2023-07-20T13:51:51;21.10;98.80
30648;DHT22;17683;53.360;9.736;2023-07-20T13:54:17;21.10;99.50
30648;DHT22;17683;53.360;9.736;2023-07-20T13:56:43;21.20;99.30
30648;DHT22;17683;53.360;9.736;2023-07-20T13:59:08;21.10;98.30
30648;DHT22;17683;53.360;9.736;2023-07-20T14:01:34;21.00;98.80
30648;DHT22;17683;53.360;9.736;2023-07-20T14:04:01;21.00;98.90
30648;DHT22;17683;53.360;9.736;2023-07-20T14:06:30;20.90;98.30
30648;DHT22;17683;53.360;9.736;2023-07-20T14:08:56;21.00;99.30
30648;DHT22;17683;53.360;9.736;2023-07-20T14:11:23;21.10;98.50
30648;DHT22;17683;53.360;9.736;2023-07-20T14:13:50;21.40;99.20
30648;DHT22;17683;53.360;9.736;2023-07-20T14:16:16;21.50;97.90
30648;DHT22;17683;53.360;9.736;2023-07-20T14:18:42;21.50;97.60
30648;DHT22;17683;53.360;9.736;2023-07-20T14:21:08;21.50;97.10
30648;DHT22;17683;53.360;9.736;2023-07-20T14:23:33;21.40;97.20
30648;DHT22;17683;53.360;9.736;2023-07-20T14:25:59;21.20;97.50
30648;DHT22;17683;53.360;9.736;2023-07-20T14:28:25;21.00;98.20
30648;DHT22;17683;53.360;9.736;2023-07-20T14:30:51;21.00;99.50
30648;DHT22;17683;53.360;9.736;2023-07-20T14:33:16;21.00;98.90
30648;DHT22;17683;53.360;9.736;2023-07-20T14:35:42;20.90;98.50
30648;DHT22;17683;53.360;9.736;2023-07-20T14:38:08;21.10;99.10
30648;DHT22;17683;53.360;9.736;2023-07-20T14:40:33;21.10;98.50
30648;DHT22;17683;53.360;9.736;2023-07-20T14:42:59;21.20;97.60
30648;DHT22;17683;53.360;9.736;2023-07-20T14:45:27;21.20;96.60
30648;DHT22;17683;53.360;9.736;2023-07-20T14:47:53;21.10;95.80
30648;DHT22;17683;53.360;9.736;2023-07-20T14:50:20;21.10;97.30
30648;DHT22;17683;53.360;9.736;2023-07-20T14:52:46;21.00;95.80
30648;DHT22;17683;53.360;9.736;2023-07-20T14:55:12;20.90;96.40
30648;DHT22;17683;53.360;9.736;2023-07-20T14:57:38;20.80;97.10
30648;DHT22;17683;53.360;9.736;2023-07-20T15:00:04;20.80;96.40
30648;DHT22;17683;53.360;9.736;2023-07-20T15:02:36;20.60;97.40
30648;DHT22;17683;53.360;9.736;2023-07-20T15:05:02;20.70;97.50
30648;DHT22;17683;53.360;9.736;2023-07-20T15:07:28;20.70;97.50
30648;DHT22;17683;53.360;9.736;2023-07-20T15:09:54;20.80;97.20
30648;DHT22;17683;53.360;9.736;2023-07-20T15:12:20;20.80;96.50
30648;DHT22;17683;53.360;9.736;2023-07-20T15:15:01;20.90;95.90
30648;DHT22;17683;53.360;9.736;2023-07-20T15:17:28;21.00;97.00
30648;DHT22;17683;53.360;9.736;2023-07-20T15:19:53;20.90;96.00
30648;DHT22;17683;53.360;9.736;2023-07-20T15:22:19;20.80;95.00
30648;DHT22;17683;53.360;9.736;2023-07-20T15:24:45;20.60;95.80
30648;DHT22;17683;53.360;9.736;2023-07-20T15:27:10;20.50;96.80
30648;DHT22;17683;53.360;9.736;2023-07-20T15:29:36;20.50;96.40
30648;DHT22;17683;53.360;9.736;2023-07-20T15:32:01;20.50;96.00
30648;DHT22;17683;53.360;9.736;2023-07-20T15:34:27;20.40;95.90
30648;DHT22;17683;53.360;9.736;2023-07-20T15:36:53;20.30;96.70
30648;DHT22;17683;53.360;9.736;2023-07-20T15:39:19;20.40;96.60